createdAt,value
2023-03-28T00:01:00.548Z,99803.16
2023-03-28T00:03:29.075Z,99801.56
2023-03-28T00:06:02.712Z,99810.97
2023-03-28T00:08:30.704Z,99790.56
2023-03-28T00:11:19.928Z,99816.19
2023-03-28T00:14:03.517Z,99817.94
2023-03-28T00:16:33.637Z,99795.16
2023-03-28T00:19:03.740Z,99812.16
2023-03-28T00:21:35.343Z,99836.00
2023-03-28T00:24:06.700Z,99837.72
2023-03-28T00:26:35.660Z,99819.91
2023-03-28T00:29:06.691Z,99837.88
2023-03-28T00:31:35.127Z,99843.81
2023-03-28T00:34:02.207Z,99847.25
2023-03-28T00:36:29.452Z,99845.59
2023-03-28T00:38:57.834Z,99845.59
2023-03-28T00:41:26.726Z,99844.84
2023-03-28T00:43:55.830Z,99831.28
2023-03-28T00:46:40.227Z,99847.50
2023-03-28T00:49:15.908Z,99857.75
2023-03-28T00:51:53.329Z,99845.09
2023-03-28T00:54:21.010Z,99852.81
2023-03-28T00:56:52.318Z,99847.69
2023-03-28T00:59:23.706Z,99861.34
2023-03-28T01:01:50.837Z,99866.50
2023-03-28T01:04:20.467Z,99860.59
2023-03-28T01:06:54.601Z,99857.25
2023-03-28T01:09:24.150Z,99859.78
2023-03-28T01:11:52.376Z,99859.84
2023-03-28T01:14:23.249Z,99856.53
2023-03-28T01:16:51.313Z,99863.25
2023-03-28T01:19:44.490Z,99854.69
2023-03-28T01:22:38.033Z,99857.31
2023-03-28T01:25:44.496Z,99835.22
2023-03-28T01:28:43.602Z,99848.03
2023-03-28T01:31:42.997Z,99863.38
2023-03-28T01:34:26.231Z,99852.38
2023-03-28T01:37:05.572Z,99868.53
2023-03-28T01:40:05.963Z,99877.09
2023-03-28T01:42:53.200Z,99867.81
2023-03-28T01:46:04.075Z,99866.09
2023-03-28T01:48:47.218Z,99886.56
2023-03-28T01:51:28.743Z,99872.09
2023-03-28T01:54:34.238Z,99875.50
2023-03-28T01:57:33.721Z,99882.34
2023-03-28T02:00:21.472Z,99892.66
2023-03-28T02:03:04.580Z,99885.81
2023-03-28T02:05:34.927Z,99890.09
2023-03-28T02:08:05.863Z,99858.63
2023-03-28T02:10:33.274Z,99878.19
2023-03-28T02:13:10.846Z,99884.19
2023-03-28T02:15:41.334Z,99891.88
2023-03-28T02:18:18.024Z,99871.47
2023-03-28T02:20:45.592Z,99881.69
2023-03-28T02:23:23.851Z,99867.25
2023-03-28T02:25:51.610Z,99856.22
2023-03-28T02:28:20.044Z,99887.69
2023-03-28T02:30:46.868Z,99892.81
2023-03-28T02:33:43.964Z,99892.81
2023-03-28T02:36:52.461Z,99884.28
2023-03-28T02:39:46.719Z,99897.13
2023-03-28T02:42:55.953Z,99887.78
2023-03-28T02:45:41.479Z,99887.81
2023-03-28T02:48:37.880Z,99884.38
2023-03-28T02:52:09.264Z,99884.38
2023-03-28T02:54:53.403Z,99882.66
2023-03-28T02:57:33.505Z,99881.81
2023-03-28T03:00:11.520Z,99887.00
2023-03-28T03:02:40.647Z,99890.44
2023-03-28T03:05:09.639Z,99889.56
2023-03-28T03:07:37.896Z,99895.56
2023-03-28T03:10:11.301Z,99893.00
2023-03-28T03:12:38.424Z,99893.91
2023-03-28T03:15:06.144Z,99896.41
2023-03-28T03:17:33.394Z,99892.16
2023-03-28T03:20:02.524Z,99895.59
2023-03-28T03:22:29.326Z,99899.88
2023-03-28T03:24:56.357Z,99891.38
2023-03-28T03:27:23.154Z,99898.19
2023-03-28T03:29:50.298Z,99898.19
2023-03-28T03:32:17.090Z,99880.34
2023-03-28T03:34:43.923Z,99882.91
2023-03-28T03:37:10.712Z,99878.66
2023-03-28T03:39:37.531Z,99878.69
2023-03-28T03:42:04.681Z,99901.69
2023-03-28T03:44:31.637Z,99870.22
2023-03-28T03:46:58.547Z,99888.91
2023-03-28T03:49:25.382Z,99899.16
2023-03-28T03:51:52.334Z,99898.31
2023-03-28T03:54:19.345Z,99895.75
2023-03-28T03:56:46.449Z,99887.28
2023-03-28T03:59:13.335Z,99882.13
2023-03-28T04:01:41.538Z,99901.72
2023-03-28T04:04:08.428Z,99900.03
2023-03-28T04:06:35.724Z,99883.84
2023-03-28T04:09:02.524Z,99879.59
2023-03-28T04:11:29.319Z,99898.31
2023-03-28T04:13:56.148Z,99859.16
2023-03-28T04:16:23.860Z,99863.47
2023-03-28T04:18:50.977Z,99887.28
2023-03-28T04:21:21.014Z,99882.22
2023-03-28T04:23:48.411Z,99874.53
2023-03-28T04:26:15.507Z,99902.63
2023-03-28T04:28:43.613Z,99892.47
2023-03-28T04:31:12.084Z,99905.25
2023-03-28T04:33:40.103Z,99901.00
2023-03-28T04:36:08.045Z,99918.88
2023-03-28T04:38:41.710Z,99908.66
2023-03-28T04:41:08.746Z,99917.19
2023-03-28T04:43:35.553Z,99924.00
2023-03-28T04:46:02.948Z,99929.13
2023-03-28T04:48:30.078Z,99936.81
2023-03-28T04:50:57.267Z,99920.63
2023-03-28T04:53:24.389Z,99935.13
2023-03-28T04:55:51.277Z,99943.66
2023-03-28T04:58:23.019Z,99912.19
2023-03-28T05:00:50.496Z,99930.06
2023-03-28T05:03:21.222Z,99918.16
2023-03-28T05:05:51.267Z,99945.38
2023-03-28T05:08:22.584Z,99953.06
2023-03-28T05:10:50.542Z,99953.06
2023-03-28T05:13:17.648Z,99949.66
2023-03-28T05:15:47.500Z,99960.75
2023-03-28T05:18:15.480Z,99949.66
2023-03-28T05:20:42.563Z,99947.97
2023-03-28T05:23:09.639Z,99950.53
2023-03-28T05:25:36.632Z,99965.03
2023-03-28T05:28:04.438Z,99945.44
2023-03-28T05:30:31.497Z,99953.94
2023-03-28T05:32:59.466Z,99959.09
2023-03-28T05:35:26.562Z,99977.00
2023-03-28T05:37:53.394Z,99976.16
2023-03-28T05:40:20.505Z,99957.41
2023-03-28T05:42:47.331Z,99965.06
2023-03-28T05:45:14.513Z,99987.22
2023-03-28T05:47:41.531Z,99991.50
2023-03-28T05:50:09.558Z,99996.63
2023-03-28T05:52:36.365Z,99999.19
2023-03-28T05:55:03.278Z,99995.75
2023-03-28T05:57:30.121Z,100000.88
2023-03-28T05:59:57.018Z,100002.56
2023-03-28T06:02:24.416Z,100009.41
2023-03-28T06:04:53.898Z,100003.44
2023-03-28T06:07:31.511Z,99997.47
2023-03-28T06:10:08.569Z,100011.09
2023-03-28T06:12:35.794Z,100013.66
2023-03-28T06:15:02.646Z,99987.22
2023-03-28T06:17:29.535Z,100004.28
2023-03-28T06:19:56.497Z,100010.25
2023-03-28T06:22:23.379Z,100003.41
2023-03-28T06:24:50.440Z,100024.75
2023-03-28T06:27:17.291Z,100024.75
2023-03-28T06:29:44.146Z,100011.06
2023-03-28T06:32:12.582Z,100029.84
2023-03-28T06:34:39.524Z,100011.91
2023-03-28T06:37:06.552Z,100032.38
2023-03-28T06:39:33.357Z,100031.50
2023-03-28T06:42:03.210Z,100033.22
2023-03-28T06:44:31.062Z,100029.78
2023-03-28T06:46:58.429Z,100036.59
2023-03-28T06:49:25.390Z,100034.03
2023-03-28T06:51:53.204Z,100043.41
2023-03-28T06:54:20.234Z,100034.88
2023-03-28T06:56:47.075Z,99999.94
2023-03-28T06:59:13.934Z,100045.09
2023-03-28T07:01:41.136Z,100045.09
2023-03-28T07:04:08.251Z,100050.19
2023-03-28T07:06:35.257Z,100024.59
2023-03-28T07:09:03.489Z,100043.34
2023-03-28T07:11:32.369Z,100037.38
2023-03-28T07:13:59.311Z,100032.22
2023-03-28T07:16:26.183Z,100033.09
2023-03-28T07:18:53.052Z,100051.81
2023-03-28T07:21:20.061Z,100040.75
2023-03-28T07:23:46.951Z,100039.03
2023-03-28T07:26:15.474Z,100055.19
2023-03-28T07:28:42.492Z,100027.09
2023-03-28T07:31:09.617Z,100055.19
2023-03-28T07:33:38.579Z,100007.47
2023-03-28T07:36:21.135Z,100039.00
2023-03-28T07:38:49.435Z,100050.91
2023-03-28T07:41:16.490Z,100043.25
2023-03-28T07:43:43.405Z,100041.50
2023-03-28T07:46:14.369Z,100039.78
2023-03-28T07:48:42.062Z,100056.81
2023-03-28T07:51:10.653Z,100054.25
2023-03-28T07:53:38.001Z,100050.81
2023-03-28T07:56:10.756Z,100059.31
2023-03-28T07:58:41.806Z,100065.25
2023-03-28T08:01:13.721Z,100054.16
2023-03-28T08:03:41.805Z,100062.66
2023-03-28T08:06:20.650Z,100056.69
2023-03-28T08:08:55.965Z,100069.44
2023-03-28T08:11:22.949Z,100058.34
2023-03-28T08:13:49.802Z,100051.50
2023-03-28T08:16:16.674Z,100057.44
2023-03-28T08:18:43.562Z,100066.84
2023-03-28T08:21:10.500Z,100080.41
2023-03-28T08:23:37.322Z,100081.31
2023-03-28T08:26:06.134Z,100071.06
2023-03-28T08:28:37.778Z,100080.41
2023-03-28T08:31:14.276Z,100075.19
2023-03-28T08:33:47.157Z,100072.66
2023-03-28T08:36:14.896Z,100079.44
2023-03-28T08:38:43.035Z,100078.53
2023-03-28T08:41:46.095Z,100076.78
2023-03-28T08:45:03.456Z,100069.91
2023-03-28T08:47:59.415Z,100054.53
2023-03-28T08:51:02.578Z,100081.00
2023-03-28T08:53:37.289Z,100085.28
2023-03-28T08:56:09.098Z,100071.56
2023-03-28T08:58:58.572Z,100074.09
2023-03-28T09:01:29.221Z,100070.56
2023-03-28T09:03:56.602Z,100070.53
2023-03-28T09:06:40.846Z,100076.53
2023-03-28T09:09:16.232Z,100068.75
2023-03-28T09:12:17.199Z,100063.59
2023-03-28T09:15:19.091Z,100061.03
2023-03-28T09:18:30.856Z,100073.66
2023-03-28T09:21:18.122Z,100060.88
2023-03-28T09:24:10.436Z,100077.84
2023-03-28T09:26:47.613Z,100068.41
2023-03-28T09:29:18.895Z,100067.50
2023-03-28T09:31:54.492Z,100063.22
2023-03-28T09:34:27.761Z,100049.69
2023-03-28T09:37:15.777Z,100037.63
2023-03-28T09:39:53.424Z,100058.03
2023-03-28T09:42:29.312Z,100070.03
2023-03-28T09:45:05.654Z,100068.22
2023-03-28T09:47:33.200Z,100047.63
2023-03-28T09:50:10.034Z,100030.69
2023-03-28T09:52:40.180Z,100056.09
2023-03-28T09:55:22.287Z,100069.69
2023-03-28T09:58:10.170Z,100058.59
2023-03-28T10:00:58.227Z,100059.31
2023-03-28T10:03:33.257Z,100062.81
2023-03-28T10:06:18.228Z,100061.88
2023-03-28T10:08:45.314Z,100062.69
2023-03-28T10:11:17.985Z,100048.97
2023-03-28T10:13:51.178Z,100045.53
2023-03-28T10:16:32.230Z,100021.63
2023-03-28T10:18:59.134Z,100046.34
2023-03-28T10:21:30.465Z,100035.13
2023-03-28T10:24:02.976Z,100039.44
2023-03-28T10:26:30.913Z,100022.31
2023-03-28T10:29:04.282Z,100017.88
2023-03-28T10:31:33.131Z,100028.91
2023-03-28T10:34:02.741Z,100017.78
2023-03-28T10:36:43.618Z,100007.50
2023-03-28T10:39:24.821Z,100000.56
2023-03-28T10:41:57.456Z,100022.72
2023-03-28T10:44:30.331Z,99997.91
2023-03-28T10:47:03.616Z,100002.91
2023-03-28T10:49:47.096Z,100007.06
2023-03-28T10:52:38.260Z,100014.56
2023-03-28T10:55:14.218Z,100013.47
2023-03-28T10:58:20.855Z,100013.66
2023-03-28T11:01:22.914Z,100012.97
2023-03-28T11:04:26.640Z,100005.78
2023-03-28T11:07:20.767Z,100002.78
2023-03-28T11:10:24.451Z,99982.50
2023-03-28T11:13:15.889Z,99998.69
2023-03-28T11:15:48.385Z,99995.38
2023-03-28T11:18:48.921Z,99987.53
2023-03-28T11:21:59.620Z,99994.59
2023-03-28T11:24:58.688Z,99993.31
2023-03-28T11:27:41.703Z,99978.81
2023-03-28T11:30:21.501Z,99973.09
2023-03-28T11:33:02.666Z,99985.19
2023-03-28T11:35:47.158Z,99975.84
2023-03-28T11:38:32.521Z,99976.53
2023-03-28T11:41:23.971Z,99971.41
2023-03-28T11:44:19.029Z,99967.63
2023-03-28T11:46:52.447Z,99962.41
2023-03-28T11:49:36.182Z,99959.75
2023-03-28T11:52:28.266Z,99964.22
2023-03-28T11:55:26.395Z,99943.75
2023-03-28T11:58:11.458Z,99954.97
2023-03-28T12:01:00.878Z,99932.75
2023-03-28T12:03:55.661Z,99934.13
2023-03-28T12:07:18.956Z,99948.47
2023-03-28T12:10:14.969Z,99946.84
2023-03-28T12:13:10.374Z,99917.59
2023-03-28T12:16:05.032Z,99930.38
2023-03-28T12:18:34.305Z,99916.31
2023-03-28T12:21:03.413Z,99916.25
2023-03-28T12:23:43.380Z,99898.72
2023-03-28T12:27:00.929Z,99883.28
2023-03-28T12:29:53.577Z,99887.88
2023-03-28T12:32:35.280Z,99892.06
2023-03-28T12:35:21.451Z,99880.94
2023-03-28T12:38:24.071Z,99884.16
2023-03-28T12:41:04.490Z,99882.78
2023-03-28T12:43:49.130Z,99888.59
2023-03-28T12:46:29.094Z,99879.25
2023-03-28T12:49:18.734Z,99844.97
2023-03-28T12:51:54.222Z,99883.72
2023-03-28T12:54:28.728Z,99882.94
2023-03-28T12:57:21.042Z,99874.56
2023-03-28T13:00:28.366Z,99872.78
2023-03-28T13:03:27.008Z,99882.00
2023-03-28T13:06:03.356Z,99869.91
2023-03-28T13:09:16.714Z,99868.78
2023-03-28T13:12:15.353Z,99864.53
2023-03-28T13:14:43.211Z,99865.22
2023-03-28T13:17:26.583Z,99846.81
2023-03-28T13:20:07.354Z,99837.41
2023-03-28T13:22:42.488Z,99852.53
2023-03-28T13:25:32.161Z,99846.13
2023-03-28T13:28:12.082Z,99846.22
2023-03-28T13:30:43.960Z,99830.81
2023-03-28T13:33:27.810Z,99841.81
2023-03-28T13:36:03.648Z,99846.28
2023-03-28T13:38:30.572Z,99834.81
2023-03-28T13:41:09.520Z,99815.75
2023-03-28T13:43:45.696Z,99823.63
2023-03-28T13:46:25.712Z,99822.44
2023-03-28T13:49:13.479Z,99803.88
2023-03-28T13:51:54.991Z,99816.81
2023-03-28T13:54:23.763Z,99815.94
2023-03-28T13:56:52.517Z,99810.72
2023-03-28T13:59:26.248Z,99790.44
2023-03-28T14:02:00.102Z,99804.53
2023-03-28T14:04:33.318Z,99794.03
2023-03-28T14:07:01.795Z,99794.97
2023-03-28T14:09:28.532Z,99788.03
2023-03-28T14:11:59.894Z,99775.84
2023-03-28T14:14:42.976Z,99765.84
2023-03-28T14:17:22.587Z,99781.59
2023-03-28T14:20:05.995Z,99769.56
2023-03-28T14:22:45.716Z,99754.34
2023-03-28T14:25:21.586Z,99746.56
2023-03-28T14:27:55.890Z,99710.84
2023-03-28T14:30:36.979Z,99736.97
2023-03-28T14:33:14.826Z,99732.00
2023-03-28T14:35:51.045Z,99726.81
2023-03-28T15:39:53.099Z,99612.88
2023-03-28T15:42:20.097Z,99620.63
2023-03-28T15:44:59.104Z,99618.97
2023-03-28T15:47:30.218Z,99614.78
2023-03-28T15:50:05.459Z,99584.84
2023-03-28T15:52:34.186Z,99610.78
2023-03-28T15:55:02.587Z,99596.97
2023-03-28T15:57:30.754Z,99603.56
2023-03-28T15:59:58.785Z,99596.72
2023-03-28T16:02:25.739Z,99609.19
2023-03-28T16:05:10.881Z,99601.41
2023-03-28T16:07:50.613Z,99601.94
2023-03-28T16:10:20.986Z,99603.91
2023-03-28T16:12:51.053Z,99585.16
2023-03-28T16:15:19.162Z,99600.16
2023-03-28T16:17:47.264Z,99592.22
2023-03-28T16:20:25.979Z,99584.53
2023-03-28T16:22:52.776Z,99553.31
2023-03-28T16:25:19.788Z,99582.66
2023-03-28T16:27:46.625Z,99583.38
2023-03-28T16:30:42.978Z,99584.03
2023-03-28T16:33:10.207Z,99588.31
2023-03-28T16:35:37.789Z,99573.69
2023-03-28T16:38:04.724Z,99571.75
2023-03-28T16:40:31.741Z,99562.41
2023-03-28T16:42:58.617Z,99561.78
2023-03-28T16:45:25.442Z,99578.00
2023-03-28T16:47:52.516Z,99576.34
2023-03-28T16:50:19.472Z,99569.56
2023-03-28T16:52:46.315Z,99564.38
2023-03-28T16:55:16.605Z,99557.69
2023-03-28T16:57:43.928Z,99547.66
2023-03-28T17:00:17.698Z,99550.13
2023-03-28T17:02:48.784Z,99534.06
2023-03-28T17:05:17.035Z,99535.34
2023-03-28T17:07:43.845Z,99538.53
2023-03-28T17:10:11.602Z,99535.13
2023-03-28T17:12:38.463Z,99505.78
2023-03-28T17:15:06.659Z,99526.66
2023-03-28T17:17:33.616Z,99502.25
2023-03-28T17:20:01.113Z,99514.66
2023-03-28T17:22:27.970Z,99521.75
2023-03-28T17:24:57.073Z,99527.09
2023-03-28T17:27:23.966Z,99517.19
2023-03-28T17:29:51.784Z,99512.44
2023-03-28T17:32:18.865Z,99499.13
2023-03-28T17:34:46.284Z,99494.19
2023-03-28T17:37:13.245Z,99515.28
2023-03-28T17:39:40.834Z,99511.03
2023-03-28T17:42:09.032Z,99490.09
2023-03-28T17:44:35.894Z,99516.59
2023-03-28T17:47:03.011Z,99496.88
2023-03-28T17:49:30.083Z,99506.97
2023-03-28T17:51:57.240Z,99503.59
2023-03-28T17:54:24.597Z,99499.34
2023-03-28T17:56:52.471Z,99474.00
2023-03-28T17:59:19.623Z,99484.75
2023-03-28T18:01:46.535Z,99475.63
2023-03-28T18:04:13.607Z,99496.81
2023-03-28T18:06:41.086Z,99487.44
2023-03-28T18:09:07.937Z,99472.00
2023-03-28T18:11:35.779Z,99487.88
2023-03-28T18:14:02.595Z,99492.31
2023-03-28T18:16:29.613Z,99472.88
2023-03-28T18:18:57.400Z,99481.22
2023-03-28T18:21:24.806Z,99466.84
2023-03-28T18:23:51.716Z,99464.31
2023-03-28T18:26:18.580Z,99459.19
2023-03-28T18:28:45.388Z,99460.91
2023-03-28T18:31:15.976Z,99470.34
2023-03-28T18:33:44.059Z,99458.41
2023-03-28T18:36:12.799Z,99464.44
2023-03-28T18:38:42.785Z,99459.31
2023-03-28T18:41:12.393Z,99465.41
2023-03-28T18:43:41.982Z,99460.31
2023-03-28T18:48:40.260Z,99459.66
2023-03-28T18:51:07.671Z,99454.66
2023-03-28T18:53:40.606Z,99444.66
2023-03-28T18:56:08.839Z,99457.53
2023-03-28T18:58:39.065Z,99460.13
2023-03-28T19:01:08.720Z,99444.84
2023-03-28T19:03:40.480Z,99455.31
2023-03-28T19:06:09.783Z,99451.03
2023-03-28T19:08:36.879Z,99455.41
2023-03-28T19:11:12.215Z,99452.94
2023-03-28T19:13:39.405Z,99442.88
2023-03-28T19:16:10.643Z,99453.03
2023-03-28T19:18:40.066Z,99451.44
2023-03-28T19:21:08.305Z,99449.75
2023-03-28T19:23:36.878Z,99450.16
2023-03-28T19:26:06.742Z,99468.75
2023-03-28T19:28:33.965Z,99467.88
2023-03-28T19:31:04.426Z,99471.44
2023-03-28T19:33:31.397Z,99468.91
2023-03-28T19:35:58.650Z,99469.19
2023-03-28T19:38:26.360Z,99482.78
2023-03-28T19:41:10.056Z,99473.63
2023-03-28T19:43:38.093Z,99486.28
2023-03-28T19:46:08.272Z,99478.53
2023-03-28T19:48:35.827Z,99465.09
2023-03-28T19:51:03.448Z,99446.41
2023-03-28T19:53:30.241Z,99478.59
2023-03-28T19:55:59.445Z,99470.88
2023-03-28T19:58:27.532Z,99447.69
2023-03-28T20:00:56.769Z,99432.75
2023-03-28T20:03:23.635Z,99428.50
2023-03-28T20:05:50.615Z,99468.44
2023-03-28T20:08:18.966Z,99451.31
2023-03-28T20:10:51.333Z,99429.44
2023-03-28T20:13:18.946Z,99453.66
2023-03-28T20:15:46.914Z,99449.47
2023-03-28T20:18:20.889Z,99457.28
2023-03-28T20:21:00.393Z,99440.06
2023-03-28T20:23:29.700Z,99449.66
2023-03-28T20:25:58.693Z,99464.31
2023-03-28T20:28:25.766Z,99454.13
2023-03-28T20:30:53.983Z,99459.50
2023-03-28T20:33:21.249Z,99456.81
2023-03-28T20:35:52.890Z,99450.75
2023-03-28T20:38:19.716Z,99440.69
2023-03-28T20:40:46.610Z,99445.66
2023-03-28T20:43:19.923Z,99438.78
2023-03-28T20:45:54.687Z,99437.19
2023-03-28T20:48:34.920Z,99446.69
2023-03-28T20:51:15.085Z,99450.97
2023-03-28T20:53:44.224Z,99460.31
2023-03-28T20:56:13.465Z,99453.44
2023-03-28T20:58:40.686Z,99457.72
2023-03-28T21:01:12.042Z,99450.06
2023-03-28T21:03:50.235Z,99460.34
2023-03-28T21:06:20.404Z,99450.66
2023-03-28T21:08:49.985Z,99440.31
2023-03-28T21:11:22.212Z,99459.50
2023-03-28T21:13:49.542Z,99456.97
2023-03-28T21:16:17.204Z,99444.00
2023-03-28T21:18:44.993Z,99433.72
2023-03-28T21:21:14.105Z,99389.66
2023-03-28T21:23:41.453Z,99377.56
2023-03-28T21:26:13.775Z,99367.34
2023-03-28T21:28:41.068Z,99363.63
2023-03-28T21:31:12.243Z,99378.19
2023-03-28T21:33:40.315Z,99405.22
2023-03-28T21:36:10.167Z,99380.69
2023-03-28T21:38:38.295Z,99374.84
2023-03-28T21:41:06.142Z,99364.38
2023-03-28T21:43:33.388Z,99384.84
2023-03-28T21:46:00.458Z,99360.25
2023-03-28T21:48:27.941Z,99368.31
2023-03-28T21:51:00.548Z,99344.16
2023-03-28T21:53:31.924Z,99391.75
2023-03-28T21:55:59.521Z,99402.78
2023-03-28T21:58:29.895Z,99399.25
2023-03-28T22:00:57.245Z,99416.31
2023-03-28T22:03:24.688Z,99386.41
2023-03-28T22:05:53.426Z,99373.91
2023-03-28T22:08:22.137Z,99382.03
2023-03-28T22:10:58.264Z,99360.56
2023-03-28T22:13:25.167Z,99371.63
2023-03-28T22:15:52.845Z,99380.06
2023-03-28T22:18:20.522Z,99385.25
2023-03-28T22:20:53.122Z,99386.53
2023-03-28T22:23:22.699Z,99387.22
2023-03-28T22:25:50.431Z,99397.41
2023-03-28T22:28:18.752Z,99410.00
2023-03-28T22:30:45.977Z,99406.81
2023-03-28T22:33:13.419Z,99404.91
2023-03-28T22:35:40.605Z,99421.09
2023-03-28T22:38:07.725Z,99428.97
2023-03-28T22:40:34.948Z,99417.50
2023-03-28T22:43:03.066Z,99447.06
2023-03-28T22:45:30.032Z,99441.88
2023-03-28T22:48:00.170Z,99438.94
2023-03-28T22:50:28.127Z,99448.34
2023-03-28T22:52:55.431Z,99457.38
2023-03-28T22:55:24.153Z,99488.31
2023-03-28T22:57:52.479Z,99491.97
2023-03-28T23:00:23.527Z,99482.88
2023-03-28T23:02:52.061Z,99479.94
2023-03-28T23:05:19.861Z,99486.31
2023-03-28T23:07:47.312Z,99484.75
2023-03-28T23:10:17.646Z,99480.72
2023-03-28T23:12:45.493Z,99455.53
2023-03-28T23:15:13.182Z,99481.97
2023-03-28T23:17:40.287Z,99472.25
2023-03-28T23:20:12.477Z,99465.34
2023-03-28T23:22:41.486Z,99473.09
2023-03-28T23:25:10.729Z,99466.69
2023-03-28T23:27:37.758Z,99468.94
2023-03-28T23:30:05.778Z,99456.09
2023-03-28T23:32:32.618Z,99456.06
2023-03-28T23:34:59.633Z,99449.28
2023-03-28T23:37:27.390Z,99429.41
2023-03-28T23:39:55.490Z,99441.13
2023-03-28T23:42:24.095Z,99378.19
2023-03-28T23:44:51.754Z,99411.97
2023-03-28T23:47:20.354Z,99403.00
2023-03-28T23:49:47.578Z,99373.13
2023-03-28T23:52:16.235Z,99362.31
2023-03-28T23:54:44.092Z,99334.69
2023-03-28T23:57:11.038Z,99354.03
2023-03-28T23:59:37.879Z,99336.25
